createdAt,value
2018-12-02T00:00:01.256Z,-1.43
2018-12-02T00:04:44.903Z,-1.47
2018-12-02T00:09:27.767Z,-1.41
2018-12-02T00:14:11.694Z,-1.48
2018-12-02T00:18:55.019Z,-1.59
2018-12-02T00:23:39.400Z,-1.88
2018-12-02T00:28:22.483Z,-1.60
2018-12-02T00:33:06.557Z,-1.60
2018-12-02T00:37:53.288Z,-1.58
2018-12-02T00:42:37.185Z,-1.48
2018-12-02T00:47:21.151Z,-1.35
2018-12-02T00:52:04.682Z,-1.24
2018-12-02T00:56:47.692Z,-1.18
2018-12-02T01:01:30.584Z,-1.16
2018-12-02T01:06:15.073Z,-1.22
2018-12-02T01:10:58.831Z,-1.29
2018-12-02T01:15:44.167Z,-1.22
2018-12-02T01:20:27.931Z,-1.20
2018-12-02T01:25:12.603Z,-1.22
2018-12-02T01:29:56.523Z,-1.16
2018-12-02T01:34:42.213Z,-1.14
2018-12-02T01:39:26.117Z,-1.09
2018-12-02T01:44:11.814Z,-1.05
2018-12-02T01:48:56.349Z,-1.03
2018-12-02T01:53:39.885Z,-0.99
2018-12-02T01:58:23.684Z,-1.00
2018-12-02T02:03:07.507Z,-1.07
2018-12-02T02:07:53.288Z,-1.11
2018-12-02T02:12:37.365Z,-1.54
2018-12-02T02:17:21.262Z,-1.36
2018-12-02T02:22:04.170Z,-1.38
2018-12-02T02:26:49.103Z,-1.47
2018-12-02T02:31:31.973Z,-1.58
2018-12-02T02:36:16.893Z,-1.58
2018-12-02T02:40:59.770Z,-1.56
2018-12-02T02:45:42.629Z,-1.52
2018-12-02T02:50:26.014Z,-1.65
2018-12-02T02:55:09.952Z,-1.64
2018-12-02T02:59:52.817Z,-1.60
2018-12-02T03:04:35.736Z,-1.59
2018-12-02T03:09:18.601Z,-1.58
2018-12-02T03:14:01.493Z,-1.51
2018-12-02T03:18:44.346Z,-1.49
2018-12-02T03:23:27.275Z,-1.48
2018-12-02T03:28:10.426Z,-1.46
2018-12-02T03:32:53.498Z,-1.40
2018-12-02T03:37:40.027Z,-1.45
2018-12-02T03:42:22.905Z,-1.45
2018-12-02T03:47:07.504Z,-1.55
2018-12-02T03:51:50.373Z,-1.54
2018-12-02T03:56:36.414Z,-1.79
2018-12-02T04:01:20.000Z,-1.65
2018-12-02T04:06:03.702Z,-1.64
2018-12-02T04:10:46.561Z,-1.71
2018-12-02T04:15:29.504Z,-1.85
2018-12-02T04:20:14.353Z,-2.01
2018-12-02T04:24:58.300Z,-1.89
2018-12-02T04:29:41.169Z,-1.79
2018-12-02T04:34:27.360Z,-1.86
2018-12-02T04:39:10.258Z,-1.81
2018-12-02T04:43:54.320Z,-1.78
2018-12-02T04:48:38.092Z,-1.85
2018-12-02T04:53:21.383Z,-2.06
2018-12-02T04:58:06.517Z,-1.91
2018-12-02T05:02:52.112Z,-1.93
2018-12-02T05:07:37.069Z,-1.84
2018-12-02T05:12:19.947Z,-1.88
2018-12-02T05:17:03.848Z,-1.96
2018-12-02T05:21:46.722Z,-2.09
2018-12-02T05:26:30.654Z,-2.15
2018-12-02T05:31:14.458Z,-2.01
2018-12-02T05:35:58.137Z,-1.95
2018-12-02T05:40:41.791Z,-2.01
2018-12-02T05:45:25.439Z,-2.12
2018-12-02T05:50:13.588Z,-2.08
2018-12-02T05:54:59.713Z,-2.00
2018-12-02T05:59:42.592Z,-1.92
2018-12-02T06:04:26.253Z,-1.91
2018-12-02T06:09:10.093Z,-1.77
2018-12-02T06:13:53.749Z,-1.74
2018-12-02T06:18:37.400Z,-1.75
2018-12-02T06:23:22.217Z,-1.70
2018-12-02T06:28:06.247Z,-1.73
2018-12-02T06:32:52.475Z,-1.72
2018-12-02T06:37:36.458Z,-1.72
2018-12-02T06:42:19.332Z,-1.62
2018-12-02T06:47:05.992Z,-1.53
2018-12-02T06:51:50.656Z,-1.54
2018-12-02T06:56:43.376Z,-1.46
2018-12-02T07:01:41.251Z,-1.22
2018-12-02T07:06:27.965Z,-1.11
2018-12-02T07:11:11.864Z,-0.93
2018-12-02T07:15:57.568Z,-0.75
2018-12-02T07:20:44.507Z,-0.57
2018-12-02T07:25:31.765Z,-0.31
2018-12-02T07:30:15.490Z,-0.09
2018-12-02T07:35:00.977Z,0.13
2018-12-02T07:39:58.857Z,0.03
2018-12-02T07:44:42.868Z,-0.25
2018-12-02T07:49:26.565Z,-0.10
2018-12-02T07:54:11.491Z,0.07
2018-12-02T07:58:55.862Z,0.13
2018-12-02T08:03:42.121Z,-0.14
2018-12-02T08:08:25.879Z,0.31
2018-12-02T08:13:10.853Z,0.23
2018-12-02T08:17:54.472Z,0.50
2018-12-02T08:22:38.266Z,0.71
2018-12-02T08:27:23.307Z,0.68
2018-12-02T08:32:08.636Z,0.93
2018-12-02T08:36:55.468Z,1.28
2018-12-02T08:41:40.267Z,1.30
2018-12-02T08:46:25.855Z,1.21
2018-12-02T08:51:10.913Z,1.54
2018-12-02T08:55:55.592Z,1.93
2018-12-02T09:00:39.415Z,2.01
2018-12-02T09:05:27.760Z,2.29
2018-12-02T09:10:14.911Z,2.43
2018-12-02T09:15:02.742Z,2.83
2018-12-02T09:19:46.310Z,2.68
2018-12-02T09:24:31.195Z,3.19
2018-12-02T09:29:15.402Z,2.88
2018-12-02T09:33:59.319Z,2.87
2018-12-02T09:38:43.864Z,2.93
2018-12-02T09:43:28.664Z,2.69
2018-12-02T09:48:12.829Z,2.64
2018-12-02T09:52:58.980Z,3.41
2018-12-02T09:57:43.026Z,3.34
2018-12-02T10:02:27.187Z,3.43
2018-12-02T10:07:13.315Z,3.37
2018-12-02T10:11:56.909Z,3.27
2018-12-02T10:16:45.082Z,3.22
2018-12-02T10:21:28.879Z,3.32
2018-12-02T10:26:14.660Z,3.41
2018-12-02T10:30:58.825Z,3.30
2018-12-02T10:35:42.969Z,3.52
2018-12-02T10:40:28.940Z,3.46
2018-12-02T10:45:16.289Z,3.45
2018-12-02T10:49:59.940Z,3.56
2018-12-02T10:54:43.733Z,3.67
2018-12-02T10:59:27.506Z,4.11
2018-12-02T11:04:11.412Z,4.42
2018-12-02T11:08:55.710Z,4.77
2018-12-02T11:13:39.730Z,4.88
2018-12-02T11:18:23.526Z,4.76
2018-12-02T11:23:11.125Z,4.88
2018-12-02T11:27:55.435Z,4.88
2018-12-02T11:32:40.484Z,4.82
2018-12-02T11:37:23.408Z,4.88
2018-12-02T11:42:06.317Z,4.62
2018-12-02T11:46:51.241Z,4.55
2018-12-02T11:51:34.913Z,4.65
2018-12-02T11:56:20.158Z,4.65
2018-12-02T12:01:04.949Z,4.83
2018-12-02T12:05:52.468Z,4.76
2018-12-02T12:10:36.998Z,4.92
2018-12-02T12:15:26.939Z,5.30
2018-12-02T12:20:16.051Z,4.99
2018-12-02T12:24:59.849Z,4.83
2018-12-02T12:29:43.495Z,4.84
2018-12-02T12:34:27.165Z,4.66
2018-12-02T12:39:10.937Z,4.59
2018-12-02T12:43:55.052Z,4.59
2018-12-02T12:48:38.261Z,4.56
2018-12-02T12:53:21.288Z,4.47
2018-12-02T12:58:04.893Z,4.40
2018-12-02T13:02:49.706Z,4.43
2018-12-02T13:07:33.214Z,4.68
2018-12-02T13:12:18.923Z,4.73
2018-12-02T13:17:03.078Z,4.62
2018-12-02T13:21:47.125Z,4.54
2018-12-02T13:26:33.967Z,4.46
2018-12-02T13:31:20.157Z,4.59
2018-12-02T13:36:07.640Z,5.23
2018-12-02T13:40:56.136Z,4.75
2018-12-02T13:45:44.158Z,4.48
2018-12-02T13:50:27.830Z,4.28
2018-12-02T13:55:12.816Z,4.57
2018-12-02T13:59:56.430Z,4.19
2018-12-02T14:04:40.322Z,4.08
2018-12-02T14:09:24.485Z,3.91
2018-12-02T14:14:09.689Z,3.74
2018-12-02T14:18:55.002Z,3.64
2018-12-02T14:23:42.673Z,3.57
2018-12-02T14:28:30.834Z,3.48
2018-12-02T14:33:14.573Z,3.39
2018-12-02T14:37:58.488Z,3.32
2018-12-02T14:44:14.759Z,3.23
2018-12-02T14:48:57.715Z,3.07
2018-12-02T14:53:42.659Z,2.88
2018-12-02T14:58:25.587Z,2.76
2018-12-02T15:03:08.724Z,2.65
2018-12-02T15:07:51.609Z,2.54
2018-12-02T15:12:35.759Z,2.67
2018-12-02T15:17:18.681Z,2.66
2018-12-02T15:22:01.566Z,2.56
2018-12-02T15:26:44.588Z,2.62
2018-12-02T15:31:27.438Z,2.62
2018-12-02T15:36:11.522Z,2.61
2018-12-02T15:40:54.400Z,2.57
2018-12-02T15:45:38.423Z,2.55
2018-12-02T15:50:22.787Z,2.43
2018-12-02T15:55:07.966Z,2.48
2018-12-02T15:59:51.987Z,2.35
2018-12-02T16:04:36.904Z,2.31
2018-12-02T16:09:22.556Z,2.28
2018-12-02T16:14:07.148Z,2.30
2018-12-02T16:18:50.053Z,2.38
2018-12-02T16:23:33.019Z,2.47
2018-12-02T16:28:16.066Z,2.51
2018-12-02T16:32:59.083Z,2.46
2018-12-02T16:37:42.310Z,2.35
2018-12-02T16:42:28.213Z,2.45
2018-12-02T16:47:12.722Z,2.30
2018-12-02T16:52:00.546Z,2.38
2018-12-02T16:56:45.733Z,2.43
2018-12-02T17:01:31.817Z,2.50
2018-12-02T17:06:16.368Z,2.54
2018-12-02T17:11:00.361Z,2.62
2018-12-02T17:15:47.339Z,2.68
2018-12-02T17:20:31.611Z,2.75
2018-12-02T17:25:15.657Z,2.79
2018-12-02T17:29:59.060Z,2.90
2018-12-02T17:34:42.839Z,2.86
2018-12-02T17:39:27.953Z,2.86
2018-12-02T17:44:12.452Z,2.93
2018-12-02T17:48:55.338Z,2.88
2018-12-02T17:53:40.723Z,2.89
2018-12-02T17:58:23.598Z,3.00
2018-12-02T18:03:09.092Z,3.04
2018-12-02T18:07:54.732Z,3.07
2018-12-02T18:12:38.442Z,3.11
2018-12-02T18:17:22.086Z,3.13
2018-12-02T18:22:08.182Z,3.14
2018-12-02T18:26:52.264Z,3.20
2018-12-02T18:31:37.275Z,3.18
2018-12-02T18:36:27.391Z,3.19
2018-12-02T18:41:14.914Z,3.17
2018-12-02T18:45:59.960Z,3.12
2018-12-02T18:50:43.655Z,3.10
2018-12-02T18:55:28.716Z,3.13
2018-12-02T19:00:20.903Z,3.07
2018-12-02T19:05:06.515Z,3.00
2018-12-02T19:09:50.412Z,3.02
2018-12-02T19:14:34.065Z,2.99
2018-12-02T19:19:17.975Z,3.02
2018-12-02T19:24:01.890Z,2.98
2018-12-02T19:28:46.038Z,2.97
2018-12-02T19:33:33.532Z,3.05
2018-12-02T19:38:21.742Z,2.98
2018-12-02T19:43:06.273Z,3.04
2018-12-02T19:47:50.764Z,2.97
2018-12-02T19:52:34.926Z,2.83
2018-12-02T19:57:19.466Z,2.87
2018-12-02T20:02:04.652Z,2.82
2018-12-02T20:06:48.577Z,2.78
2018-12-02T20:11:35.590Z,2.71
2018-12-02T20:16:19.333Z,2.73
2018-12-02T20:21:03.748Z,2.78
2018-12-02T20:25:48.423Z,2.67
2018-12-02T20:30:33.776Z,2.85
2018-12-02T20:35:17.372Z,2.89
2018-12-02T20:40:01.550Z,2.87
2018-12-02T20:44:45.450Z,2.86
2018-12-02T20:49:29.106Z,2.91
2018-12-02T20:54:13.576Z,2.84
2018-12-02T20:58:57.175Z,2.91
2018-12-02T21:03:43.630Z,2.93
2018-12-02T21:08:27.295Z,2.90
2018-12-02T21:13:10.997Z,2.93
2018-12-02T21:17:54.594Z,2.89
2018-12-02T21:22:40.544Z,3.00
2018-12-02T21:27:24.332Z,2.85
2018-12-02T21:32:11.422Z,2.92
2018-12-02T21:36:55.474Z,2.85
2018-12-02T21:41:42.821Z,2.78
2018-12-02T21:46:26.191Z,2.66
2018-12-02T21:51:09.870Z,2.74
2018-12-02T21:55:53.516Z,2.76
2018-12-02T22:00:42.944Z,2.68
2018-12-02T22:05:26.724Z,2.78
2018-12-02T22:10:11.911Z,2.79
2018-12-02T22:14:55.603Z,2.78
2018-12-02T22:19:39.245Z,2.82
2018-12-02T22:24:24.583Z,2.67
2018-12-02T22:29:08.294Z,2.77
2018-12-02T22:33:52.211Z,2.69
2018-12-02T22:38:35.871Z,2.59
2018-12-02T22:43:20.418Z,2.57
2018-12-02T22:48:04.178Z,2.57
2018-12-02T22:52:52.323Z,2.54
2018-12-02T22:57:35.838Z,2.57
2018-12-02T23:02:24.558Z,2.51
2018-12-02T23:07:08.512Z,2.31
2018-12-02T23:11:53.754Z,2.41
2018-12-02T23:16:38.609Z,2.42
2018-12-02T23:21:22.272Z,2.39
2018-12-02T23:26:06.189Z,2.31
2018-12-02T23:30:51.887Z,2.34
2018-12-02T23:35:35.539Z,2.30
2018-12-02T23:40:21.483Z,2.20
2018-12-02T23:45:09.245Z,2.19
2018-12-02T23:49:52.910Z,2.22
2018-12-02T23:54:38.729Z,2.14
2018-12-02T23:59:22.547Z,2.09
